Terminal Aerodrome Forecast
Issued by NWS

Home | Current Version | Previous Version | Graphics & Text | Print | Product List | Glossary On
Versions: 1 2 3 4 5 6 7 8 9 10 11 12 13 14 15 16 17 18 19 20 21 22 23
000
FTUS41 KCLE 050400 AAA
TAFFDY
TAF AMD
KFDY 050441Z 0505/0524 25007KT 5SM BR SCT050 OVC100
     FM050700 VRB04KT 5SM BR VCSH SCT030 BKN050
     FM051200 06008KT 5SM -SHRA OVC020
     FM051900 02008KT 5SM -SHRA OVC020=

USA.gov is the U.S. government's official web portal to all federal, state and local government web resources and services.